Status Flugplatz

Der Flugplatz ist offen
PPR Regelung ! PJE !!!

123.15 MHz
RWY 05/23

flüger beizli - Öffnungszeiten
Freitag ab 16:00
Samstag +Sonntag ab 11:00
Bei schönem Wetter öffnen wir früher! Tel.: 079 234 07 74

Herzlich willkommen auf der Homepage des Flugplatz Biel-Kappelen

Wir freuen uns über Ihren Besuch auf unserem schönen Flugplatz im Berner Seeland. Ob zu Fuss, per Velo, Motorrad, Auto oder Flugzeug Sie sind uns jederzeit herzlich willkommen. 


 

Wetter Kappelen

 


 

[source: ADDS]
METAR
LSZG 211650Z AUTO 27007KT 9999 OVC032 11/07 Q1021 =
TAF
TAF LSZG 211425Z 2115/2124 25010KT 9999 FEW010 BKN030 PROB30 TEMPO 2115/2120 DZ BKN012 PROB40 2118/2124 4500 BR BKN010 =
SR / SS: 06:25 / 17:05 UTC ( 2017-02-21)

 


 

Besucherzähler

HeuteHeute63
Seit BeginnSeit Beginn81865
Guests 2

Flugplatz Biel-Kappelen LSZP - 123.15MHz - 032 384 46 84

Email: Diese E-Mail-Adresse ist vor Spambots geschützt! Zur Anzeige muss JavaScript eingeschaltet sein!
www.lszp.ch
2017 © by mb

Zum Anfang